Time;durP1;ratioP1;P1;durP2;ratioP2;P2;SDS_P1;SDS_P2;PMS_P1;PMS_P2;Temp;Humidity;BMP_temperature;BMP_pressure;BME280_temperature;BME280_humidity;BME280_pressure;Samples;Min_cycle;Max_cycle;Signal;HPM_P1;HPM_P2
2022/12/15 00:40:08;;;;;;;;;;;-4.40;99.90;;;;;;4946746;28;19927;-69
2022/12/15 00:42:34;;;;;;;;;;;-4.40;99.90;;;;;;4947743;28;19926;-70
2022/12/15 00:45:00;;;;;;;;;;;-4.30;99.90;;;;;;4949869;28;19926;-69
2022/12/15 00:47:25;;;;;;;;;;;-4.30;99.90;;;;;;4959792;28;19923;-70
2022/12/15 01:22:59;;;;;;;;;;;-4.40;99.90;;;;;;4941304;28;19922;-70
2022/12/15 01:25:25;;;;;;;;;;;-4.40;99.90;;;;;;4937446;28;19983;-70
2022/12/15 01:27:50;;;;;;;;;;;-4.50;99.90;;;;;;4971246;28;19937;-70
2022/12/15 01:30:17;;;;;;;;;;;-4.50;99.90;;;;;;4934195;28;19923;-70
2022/12/15 01:32:43;;;;;;;;;;;-4.60;99.90;;;;;;4935126;28;20017;-70
2022/12/15 01:35:09;;;;;;;;;;;-4.70;99.90;;;;;;4936481;29;20034;-70
2022/12/15 01:37:35;;;;;;;;;;;-4.70;99.90;;;;;;4949899;28;19973;-70
2022/12/15 01:42:45;;;;;;;;;;;-4.80;99.90;;;;;;4962747;28;19926;-70
2022/12/15 01:45:23;;;;;;;;;;;-4.80;99.90;;;;;;4950154;28;19926;-70
2022/12/15 01:47:49;;;;;;;;;;;-4.80;99.90;;;;;;4951964;28;19923;-70
2022/12/15 01:50:15;;;;;;;;;;;-4.70;99.90;;;;;;4958429;28;19973;-69
2022/12/15 01:52:41;;;;;;;;;;;-4.70;99.90;;;;;;4952751;28;20415;-69
2022/12/15 01:55:07;;;;;;;;;;;-4.70;99.90;;;;;;4954618;28;19930;-70
2022/12/15 01:57:34;;;;;;;;;;;-4.70;99.90;;;;;;4954271;28;20387;-70
2022/12/15 02:00:01;;;;;;;;;;;-4.60;99.90;;;;;;4944927;28;19930;-70
2022/12/15 02:02:27;;;;;;;;;;;-4.60;99.90;;;;;;4957648;28;19926;-70
2022/12/15 02:04:55;;;;;;;;;;;-4.50;99.90;;;;;;4952801;28;20369;-70
2022/12/15 02:07:21;;;;;;;;;;;-4.30;99.90;;;;;;4953935;28;19990;-70
2022/12/15 02:09:48;;;;;;;;;;;-4.00;99.90;;;;;;4955997;28;19922;-70
2022/12/15 02:12:29;;;;;;;;;;;-3.70;99.90;;;;;;4956385;28;19926;-70
2022/12/15 02:14:58;;;;;;;;;;;-3.50;99.90;;;;;;4958643;28;19926;-70
2022/12/15 02:17:44;;;;;;;;;;;-3.50;99.90;;;;;;4959044;28;19954;-70
2022/12/15 02:20:29;;;;;;;;;;;-3.50;99.90;;;;;;4946908;28;20015;-70
2022/12/15 02:23:12;;;;;;;;;;;-3.50;99.90;;;;;;4952472;28;19957;-70
2022/12/15 02:25:57;;;;;;;;;;;-3.60;99.90;;;;;;4954838;28;20732;-70
2022/12/15 02:28:41;;;;;;;;;;;-3.70;99.90;;;;;;4946957;28;19926;-70
2022/12/15 02:34:03;;;;;;;;;;;-3.90;99.90;;;;;;4969172;28;19981;-70
2022/12/15 02:36:35;;;;;;;;;;;-3.90;99.90;;;;;;4973556;28;19933;-70
2022/12/15 02:39:01;;;;;;;;;;;-4.00;99.90;;;;;;4948389;28;19929;-70
2022/12/15 02:41:34;;;;;;;;;;;-4.10;99.90;;;;;;4938516;29;19949;-70
2022/12/15 02:44:02;;;;;;;;;;;-4.10;99.90;;;;;;4968958;28;19922;-70
2022/12/15 02:46:34;;;;;;;;;;;-4.10;99.90;;;;;;4962427;28;19923;-70
2022/12/15 02:49:05;;;;;;;;;;;-4.10;99.90;;;;;;4955817;28;20020;-69
2022/12/15 02:51:46;;;;;;;;;;;-4.20;99.90;;;;;;4947840;28;20453;-70
2022/12/15 02:54:41;;;;;;;;;;;-4.10;99.90;;;;;;4955901;28;20021;-70
2022/12/15 02:57:17;;;;;;;;;;;-4.00;99.90;;;;;;4940862;28;20338;-70
2022/12/15 02:59:54;;;;;;;;;;;-3.90;99.90;;;;;;4957947;28;19926;-70
2022/12/15 03:02:22;;;;;;;;;;;-3.80;99.90;;;;;;4952735;28;20017;-70
2022/12/15 03:04:47;;;;;;;;;;;-3.70;99.90;;;;;;4937155;28;19973;-70
2022/12/15 03:07:13;;;;;;;;;;;-3.70;99.90;;;;;;4948910;28;19922;-70
2022/12/15 03:09:39;;;;;;;;;;;-3.60;99.90;;;;;;4956397;28;19933;-70
2022/12/15 03:12:04;;;;;;;;;;;-3.60;99.90;;;;;;4957861;28;19984;-70
2022/12/15 03:14:30;;;;;;;;;;;-3.60;99.90;;;;;;4954477;28;20322;-71
2022/12/15 03:16:55;;;;;;;;;;;-3.60;99.90;;;;;;4970303;28;20397;-70
2022/12/15 03:19:21;;;;;;;;;;;-3.60;99.90;;;;;;4967618;28;19930;-70
2022/12/15 03:21:47;;;;;;;;;;;-3.50;99.90;;;;;;4944018;28;19922;-70
2022/12/15 03:24:12;;;;;;;;;;;-3.50;99.90;;;;;;4951915;28;20009;-70
2022/12/15 03:26:38;;;;;;;;;;;-3.40;99.90;;;;;;4956933;28;20818;-70
2022/12/15 03:29:03;;;;;;;;;;;-3.40;99.90;;;;;;4970226;28;19992;-70
2022/12/15 03:31:29;;;;;;;;;;;-3.40;99.90;;;;;;4948352;28;19922;-70
2022/12/15 03:33:54;;;;;;;;;;;-3.40;99.90;;;;;;4957562;28;19930;-71
2022/12/15 03:36:21;;;;;;;;;;;-3.50;99.90;;;;;;4971834;28;19929;-70
2022/12/15 03:38:47;;;;;;;;;;;-3.50;99.90;;;;;;4957986;28;20253;-70
2022/12/15 03:41:13;;;;;;;;;;;-3.50;99.90;;;;;;4964567;28;19926;-70
2022/12/15 03:43:38;;;;;;;;;;;-3.60;99.90;;;;;;4963454;28;19930;-70
2022/12/15 03:46:04;;;;;;;;;;;-3.60;99.90;;;;;;4959211;28;19932;-70
2022/12/15 03:48:29;;;;;;;;;;;-3.60;99.90;;;;;;4939234;28;19937;-70
2022/12/15 03:50:55;;;;;;;;;;;-3.60;99.90;;;;;;4953628;28;19922;-70
2022/12/15 03:53:21;;;;;;;;;;;-3.60;99.90;;;;;;4958175;28;20506;-70
2022/12/15 03:55:46;;;;;;;;;;;-3.70;99.90;;;;;;4942405;28;19933;-70
2022/12/15 03:58:12;;;;;;;;;;;-3.80;99.90;;;;;;4961902;28;19938;-70
2022/12/15 04:00:38;;;;;;;;;;;-3.90;99.90;;;;;;4964493;28;20383;-70
2022/12/15 04:03:03;;;;;;;;;;;-4.00;99.90;;;;;;4954784;28;19988;-70
2022/12/15 04:05:30;;;;;;;;;;;-4.00;99.90;;;;;;4955552;28;20405;-70
2022/12/15 04:07:56;;;;;;;;;;;-4.10;99.90;;;;;;4958310;28;20358;-70
2022/12/15 04:10:23;;;;;;;;;;;-4.10;99.90;;;;;;4960393;28;20016;-70
2022/12/15 04:12:55;;;;;;;;;;;-4.10;99.90;;;;;;4959405;28;19926;-70
2022/12/15 04:15:20;;;;;;;;;;;-4.20;99.90;;;;;;4970001;28;20349;-70
2022/12/15 04:17:46;;;;;;;;;;;-4.20;99.90;;;;;;4965758;28;19924;-70
2022/12/15 04:20:12;;;;;;;;;;;-4.30;99.90;;;;;;4960539;28;20045;-70
2022/12/15 04:22:42;;;;;;;;;;;-4.20;99.90;;;;;;4945527;28;19930;-70
2022/12/15 05:33:38;;;;;;;;;;;-1.90;99.90;;;;;;4958142;28;20093;-71
2022/12/15 05:36:05;;;;;;;;;;;-1.90;99.90;;;;;;4943834;28;20056;-71
2022/12/15 05:38:30;;;;;;;;;;;-1.90;99.90;;;;;;4947259;28;19922;-71
2022/12/15 05:40:57;;;;;;;;;;;-1.80;99.90;;;;;;4962479;28;19934;-71
2022/12/15 05:43:22;;;;;;;;;;;-1.80;99.90;;;;;;4941454;28;19926;-71
2022/12/15 05:45:48;;;;;;;;;;;-1.80;99.90;;;;;;4960589;28;20521;-71
2022/12/15 05:48:13;;;;;;;;;;;-1.70;99.90;;;;;;4962810;28;19922;-71
2022/12/15 05:50:39;;;;;;;;;;;-1.70;99.90;;;;;;4957301;28;20425;-71
2022/12/15 05:53:04;;;;;;;;;;;-1.70;99.90;;;;;;4952274;28;19926;-71
2022/12/15 05:55:30;;;;;;;;;;;-1.80;99.90;;;;;;4937703;29;19972;-71
2022/12/15 05:57:55;;;;;;;;;;;-1.80;99.90;;;;;;4949368;28;19922;-71
2022/12/15 06:00:21;;;;;;;;;;;-1.80;99.90;;;;;;4933698;28;19982;-71
2022/12/15 06:02:47;;;;;;;;;;;-1.80;99.90;;;;;;4951276;28;20002;-71
2022/12/15 06:05:12;;;;;;;;;;;-1.90;99.90;;;;;;4955423;28;20414;-71
2022/12/15 06:07:38;;;;;;;;;;;-1.90;99.90;;;;;;4946593;28;20523;-71
2022/12/15 06:10:04;;;;;;;;;;;-1.90;99.90;;;;;;4945528;28;19923;-71
2022/12/15 06:12:31;;;;;;;;;;;-2.00;99.90;;;;;;4940559;28;20426;-71
2022/12/15 06:14:57;;;;;;;;;;;-2.00;99.90;;;;;;4968344;28;20421;-70
2022/12/15 06:17:23;;;;;;;;;;;-2.00;99.90;;;;;;4967198;28;19937;-70
2022/12/15 06:19:49;;;;;;;;;;;-2.10;99.90;;;;;;4957306;28;19929;-70
2022/12/15 06:22:14;;;;;;;;;;;-2.10;99.90;;;;;;4952136;28;19926;-71
2022/12/15 06:24:40;;;;;;;;;;;-2.10;99.90;;;;;;4945885;28;19922;-71
2022/12/15 06:27:06;;;;;;;;;;;-2.10;99.90;;;;;;4944731;28;20013;-71
2022/12/15 06:29:31;;;;;;;;;;;-2.10;99.90;;;;;;4939366;28;20371;-70
2022/12/15 06:31:57;;;;;;;;;;;-2.00;99.90;;;;;;4959768;28;19925;-71
2022/12/15 06:34:22;;;;;;;;;;;-2.00;99.90;;;;;;4952877;28;19922;-71
2022/12/15 06:36:49;;;;;;;;;;;-2.00;99.90;;;;;;4971966;28;19926;-71
2022/12/15 06:39:15;;;;;;;;;;;-1.90;99.90;;;;;;4968957;28;19970;-70
2022/12/15 06:41:41;;;;;;;;;;;-1.90;99.90;;;;;;4955973;28;20013;-70
2022/12/15 06:44:07;;;;;;;;;;;-1.90;99.90;;;;;;4942145;29;19927;-71
2022/12/15 06:46:33;;;;;;;;;;;-1.90;99.90;;;;;;4946980;28;20449;-71
2022/12/15 06:48:59;;;;;;;;;;;-1.90;99.90;;;;;;4940469;28;19923;-71
2022/12/15 06:51:25;;;;;;;;;;;-1.90;99.90;;;;;;4949117;28;19933;-71
2022/12/15 06:53:54;;;;;;;;;;;-1.80;99.90;;;;;;4943368;28;20013;-71
2022/12/15 06:56:21;;;;;;;;;;;-1.80;99.90;;;;;;4954123;28;20025;-71
2022/12/15 06:58:47;;;;;;;;;;;-1.80;99.90;;;;;;4954200;28;19926;-71
2022/12/15 07:01:14;;;;;;;;;;;-1.70;99.90;;;;;;4934001;28;20529;-71
2022/12/15 07:03:40;;;;;;;;;;;-1.60;99.90;;;;;;4961773;28;19926;-71
2022/12/15 07:06:06;;;;;;;;;;;-1.50;99.90;;;;;;4949739;28;19922;-71
2022/12/15 07:08:32;;;;;;;;;;;-1.50;99.90;;;;;;4942760;28;19981;-71
2022/12/15 07:10:58;;;;;;;;;;;-1.40;99.90;;;;;;4949090;28;19930;-71
2022/12/15 07:13:24;;;;;;;;;;;-1.40;99.90;;;;;;4934549;28;19922;-71
2022/12/15 07:15:50;;;;;;;;;;;-1.30;99.90;;;;;;4953455;28;20280;-71
2022/12/15 07:18:16;;;;;;;;;;;-1.20;99.90;;;;;;4954664;28;19926;-71
2022/12/15 07:20:42;;;;;;;;;;;-1.20;99.90;;;;;;4961072;28;19970;-71
2022/12/15 07:23:08;;;;;;;;;;;-1.20;99.90;;;;;;4962407;28;20290;-71
2022/12/15 07:25:37;;;;;;;;;;;-1.20;99.90;;;;;;4958826;28;19961;-71
2022/12/15 07:28:03;;;;;;;;;;;-1.30;99.90;;;;;;4948131;28;19990;-71
2022/12/15 07:30:29;;;;;;;;;;;-1.40;99.90;;;;;;4947796;28;19969;-71
2022/12/15 07:32:55;;;;;;;;;;;-1.40;99.90;;;;;;4955168;28;19926;-71
2022/12/15 07:35:20;;;;;;;;;;;-1.50;99.90;;;;;;4956149;28;19985;-71
2022/12/15 07:37:46;;;;;;;;;;;-1.50;99.90;;;;;;4961903;28;19926;-71
2022/12/15 07:40:12;;;;;;;;;;;-1.50;99.90;;;;;;4969056;28;19926;-71
2022/12/15 07:42:37;;;;;;;;;;;-1.50;99.90;;;;;;4959954;28;20355;-71
2022/12/15 07:45:04;;;;;;;;;;;-1.50;99.90;;;;;;4961300;28;19922;-71
2022/12/15 07:47:30;;;;;;;;;;;-1.50;99.90;;;;;;4941820;28;20514;-71
2022/12/15 07:49:55;;;;;;;;;;;-1.50;99.90;;;;;;4942540;28;19934;-71
2022/12/15 07:52:21;;;;;;;;;;;-1.50;99.90;;;;;;4972244;28;19922;-73
2022/12/15 07:54:47;;;;;;;;;;;-1.50;99.90;;;;;;4968900;28;19922;-73
2022/12/15 07:57:13;;;;;;;;;;;-1.40;99.90;;;;;;4968928;28;20401;-72
2022/12/15 07:59:39;;;;;;;;;;;-1.40;99.90;;;;;;4959115;28;19998;-72
2022/12/15 08:02:04;;;;;;;;;;;-1.30;99.90;;;;;;4955053;28;19926;-72
2022/12/15 08:04:30;;;;;;;;;;;-1.30;99.90;;;;;;4973238;28;20006;-73
2022/12/15 08:06:59;;;;;;;;;;;-1.20;99.90;;;;;;4960722;28;19922;-73
2022/12/15 08:09:24;;;;;;;;;;;-1.20;99.90;;;;;;4965240;28;19949;-72
2022/12/15 08:11:50;;;;;;;;;;;-1.10;99.90;;;;;;4941154;28;19927;-72
2022/12/15 08:14:17;;;;;;;;;;;-1.10;99.90;;;;;;4961856;28;19930;-73
2022/12/15 08:16:42;;;;;;;;;;;-1.10;99.90;;;;;;4982195;28;20029;-73
2022/12/15 08:19:12;;;;;;;;;;;-1.10;99.90;;;;;;4953743;28;20009;-72
2022/12/15 08:21:39;;;;;;;;;;;-1.00;99.90;;;;;;4956585;28;19922;-73
2022/12/15 08:24:06;;;;;;;;;;;-1.00;99.90;;;;;;4970065;28;20044;-72
2022/12/15 08:26:32;;;;;;;;;;;-0.90;99.90;;;;;;4961284;28;19929;-73
2022/12/15 08:29:05;;;;;;;;;;;-0.80;99.90;;;;;;4975249;28;19922;-73
2022/12/15 08:31:32;;;;;;;;;;;-0.60;99.90;;;;;;4969188;28;19930;-72
2022/12/15 08:34:01;;;;;;;;;;;-0.50;99.90;;;;;;4968301;28;19961;-73
2022/12/15 08:36:27;;;;;;;;;;;-0.30;99.90;;;;;;4975777;28;19965;-73
2022/12/15 08:38:55;;;;;;;;;;;-0.20;99.90;;;;;;4944119;28;19922;-73
2022/12/15 08:41:25;;;;;;;;;;;-0.10;99.90;;;;;;4968505;28;19933;-73
2022/12/15 08:43:52;;;;;;;;;;;0.00;99.90;;;;;;4963888;28;19922;-73
2022/12/15 08:46:19;;;;;;;;;;;0.00;99.90;;;;;;4955669;28;20359;-73
2022/12/15 08:48:45;;;;;;;;;;;0.10;99.90;;;;;;4945254;28;19930;-73
2022/12/15 08:51:12;;;;;;;;;;;0.10;99.90;;;;;;4970565;28;20306;-72
2022/12/15 08:53:38;;;;;;;;;;;0.10;99.90;;;;;;4973633;28;19926;-73
2022/12/15 08:56:05;;;;;;;;;;;0.10;99.90;;;;;;4949459;28;19982;-73
2022/12/15 08:58:31;;;;;;;;;;;0.20;99.90;;;;;;4967992;28;19922;-73
2022/12/15 09:01:00;;;;;;;;;;;0.20;99.90;;;;;;4970101;28;19937;-73
2022/12/15 09:03:26;;;;;;;;;;;0.10;99.90;;;;;;4941839;28;19926;-73
2022/12/15 09:05:58;;;;;;;;;;;0.10;99.90;;;;;;4966339;28;19923;-73
2022/12/15 09:08:25;;;;;;;;;;;0.00;99.90;;;;;;4954536;28;19949;-72
2022/12/15 09:10:51;;;;;;;;;;;0.00;99.90;;;;;;4955746;28;19972;-73
2022/12/15 09:13:16;;;;;;;;;;;0.00;99.90;;;;;;4968240;28;19921;-73
2022/12/15 09:15:44;;;;;;;;;;;0.00;99.90;;;;;;4962469;28;20572;-73
2022/12/15 09:18:10;;;;;;;;;;;-0.10;99.90;;;;;;4945684;28;19953;-73
2022/12/15 09:20:36;;;;;;;;;;;0.00;99.90;;;;;;4970050;28;20361;-72
2022/12/15 09:23:01;;;;;;;;;;;0.00;99.90;;;;;;4974402;28;19981;-72
2022/12/15 09:25:27;;;;;;;;;;;0.00;99.90;;;;;;4954691;28;19969;-73
2022/12/15 09:27:56;;;;;;;;;;;0.10;99.90;;;;;;4954436;28;19969;-72
2022/12/15 09:30:21;;;;;;;;;;;0.10;99.90;;;;;;4941064;28;19978;-73
2022/12/15 09:32:47;;;;;;;;;;;0.20;99.90;;;;;;4943221;29;19929;-73
2022/12/15 09:35:12;;;;;;;;;;;0.10;99.90;;;;;;4939123;29;20311;-72
2022/12/15 09:37:38;;;;;;;;;;;0.10;99.90;;;;;;4944707;29;20241;-73
2022/12/15 09:40:08;;;;;;;;;;;0.10;99.90;;;;;;4965847;28;19922;-72
2022/12/15 09:42:34;;;;;;;;;;;0.00;99.90;;;;;;4976316;28;19925;-73
2022/12/15 09:45:18;;;;;;;;;;;0.00;99.90;;;;;;4956509;28;19922;-73
2022/12/15 09:47:56;;;;;;;;;;;0.00;99.90;;;;;;4959266;28;19976;-74
2022/12/15 09:50:24;;;;;;;;;;;0.00;99.90;;;;;;4966613;28;20296;-73
2022/12/15 09:52:52;;;;;;;;;;;0.00;99.90;;;;;;4955886;28;19930;-73
2022/12/15 09:55:22;;;;;;;;;;;0.10;99.90;;;;;;4966404;28;19977;-72
2022/12/15 09:57:57;;;;;;;;;;;0.10;99.90;;;;;;4967065;28;19930;-73
2022/12/15 10:00:41;;;;;;;;;;;0.10;99.90;;;;;;4981072;28;19925;-72
2022/12/15 10:03:21;;;;;;;;;;;0.20;99.90;;;;;;4957770;28;19985;-73
2022/12/15 10:06:02;;;;;;;;;;;0.10;99.90;;;;;;4943061;28;19943;-72
2022/12/15 10:08:31;;;;;;;;;;;0.10;99.90;;;;;;4960284;28;19923;-72
2022/12/15 10:11:12;;;;;;;;;;;0.20;99.90;;;;;;4948506;28;19926;-72
2022/12/15 10:13:41;;;;;;;;;;;0.20;99.90;;;;;;4956639;28;19928;-71
2022/12/15 10:16:16;;;;;;;;;;;0.30;99.90;;;;;;4965699;28;19926;-71
2022/12/15 10:19:02;;;;;;;;;;;0.40;99.90;;;;;;4972568;28;20017;-71
2022/12/15 10:21:29;;;;;;;;;;;0.40;99.90;;;;;;4962640;28;20470;-71
2022/12/15 10:24:06;;;;;;;;;;;0.60;99.90;;;;;;4974107;28;20009;-71
2022/12/15 10:26:34;;;;;;;;;;;0.60;99.90;;;;;;4955801;28;19926;-71
2022/12/15 10:29:12;;;;;;;;;;;0.70;99.90;;;;;;4948630;28;19923;-71
2022/12/15 10:31:48;;;;;;;;;;;0.70;99.90;;;;;;4948390;28;19922;-72
2022/12/15 10:34:24;;;;;;;;;;;0.80;99.90;;;;;;4954505;28;19922;-72
2022/12/15 10:36:51;;;;;;;;;;;0.80;99.90;;;;;;4938398;28;19942;-72
2022/12/15 10:39:18;;;;;;;;;;;0.80;99.90;;;;;;4955474;28;19926;-72
2022/12/15 10:41:44;;;;;;;;;;;0.90;99.90;;;;;;4967055;28;20283;-71
2022/12/15 10:44:24;;;;;;;;;;;0.90;99.90;;;;;;4932892;28;20021;-72
2022/12/15 10:46:56;;;;;;;;;;;0.90;99.90;;;;;;4954592;28;19969;-72
2022/12/15 10:49:22;;;;;;;;;;;1.00;99.90;;;;;;4948925;28;19926;-72
2022/12/15 10:51:48;;;;;;;;;;;1.10;99.90;;;;;;4963560;28;20021;-71
2022/12/15 10:54:14;;;;;;;;;;;1.20;99.90;;;;;;4944775;28;20005;-71
2022/12/15 10:56:46;;;;;;;;;;;1.30;99.90;;;;;;4963938;28;19952;-71
2022/12/15 10:59:23;;;;;;;;;;;1.40;99.90;;;;;;4937882;28;19937;-71
2022/12/15 11:01:48;;;;;;;;;;;1.50;99.90;;;;;;4943867;28;19929;-72
2022/12/15 11:04:43;;;;;;;;;;;1.60;99.90;;;;;;4950695;28;20045;-72
2022/12/15 11:07:12;;;;;;;;;;;1.70;99.90;;;;;;4947035;28;20348;-72
2022/12/15 11:09:38;;;;;;;;;;;1.70;99.90;;;;;;4953502;28;19937;-72
2022/12/15 11:15:22;;;;;;;;;;;1.70;99.90;;;;;;4952034;28;19927;-72
2022/12/15 11:18:07;;;;;;;;;;;1.80;99.90;;;;;;4950440;28;19965;-72
2022/12/15 11:20:34;;;;;;;;;;;1.90;99.90;;;;;;4947388;28;19931;-72
2022/12/15 11:23:19;;;;;;;;;;;2.00;99.90;;;;;;4955023;28;20437;-72
2022/12/15 11:25:48;;;;;;;;;;;2.00;99.90;;;;;;4957767;28;20451;-72
2022/12/15 11:28:15;;;;;;;;;;;2.00;99.90;;;;;;4959972;28;19973;-72
2022/12/15 11:30:43;;;;;;;;;;;2.00;99.90;;;;;;4950653;28;19929;-72
2022/12/15 11:33:09;;;;;;;;;;;2.10;99.90;;;;;;4959813;28;19926;-72
2022/12/15 11:35:38;;;;;;;;;;;2.10;99.90;;;;;;4950316;28;19930;-72
2022/12/15 11:38:22;;;;;;;;;;;2.20;99.90;;;;;;4947090;28;19937;-72
2022/12/15 11:40:49;;;;;;;;;;;2.20;99.90;;;;;;4955021;28;19922;-72
2022/12/15 11:43:25;;;;;;;;;;;2.30;99.90;;;;;;4947392;28;20061;-73
2022/12/15 11:46:10;;;;;;;;;;;2.30;99.90;;;;;;4970199;28;19985;-73
2022/12/15 11:48:42;;;;;;;;;;;2.30;99.90;;;;;;4957054;28;19984;-72
2022/12/15 11:51:28;;;;;;;;;;;2.40;99.90;;;;;;4947005;28;19977;-73
2022/12/15 11:53:54;;;;;;;;;;;2.40;99.90;;;;;;4931072;28;20120;-73
2022/12/15 11:56:44;;;;;;;;;;;2.50;99.90;;;;;;4957583;28;19926;-73
2022/12/15 11:59:20;;;;;;;;;;;2.50;99.90;;;;;;4947500;28;20009;-73
2022/12/15 12:01:45;;;;;;;;;;;2.60;99.90;;;;;;4952134;28;19925;-73
2022/12/15 12:04:19;;;;;;;;;;;2.60;99.90;;;;;;4958118;28;20261;-74
2022/12/15 12:07:05;;;;;;;;;;;2.50;99.90;;;;;;4955704;28;19930;-73
2022/12/15 12:10:03;;;;;;;;;;;2.50;99.90;;;;;;4991080;28;19926;-74
2022/12/15 12:12:32;;;;;;;;;;;2.50;99.90;;;;;;4939874;28;20307;-73
2022/12/15 12:15:04;;;;;;;;;;;2.50;99.90;;;;;;4969714;28;20362;-74
2022/12/15 12:17:33;;;;;;;;;;;2.50;99.90;;;;;;4954017;28;20399;-74
2022/12/15 12:20:00;;;;;;;;;;;2.50;99.90;;;;;;4950471;28;19933;-73
2022/12/15 12:22:26;;;;;;;;;;;2.40;99.90;;;;;;4955397;28;20370;-75
2022/12/15 12:24:57;;;;;;;;;;;2.40;99.90;;;;;;4967051;28;19938;-74
2022/12/15 12:27:27;;;;;;;;;;;2.40;99.90;;;;;;4959982;28;19933;-74
2022/12/15 12:30:00;;;;;;;;;;;2.40;99.90;;;;;;4975746;28;19972;-72
2022/12/15 12:32:35;;;;;;;;;;;2.50;99.90;;;;;;4962056;28;20010;-74
2022/12/15 12:35:13;;;;;;;;;;;2.50;99.90;;;;;;4937763;29;20015;-74
2022/12/15 12:37:54;;;;;;;;;;;2.60;99.90;;;;;;4958333;28;20394;-73
2022/12/15 12:40:34;;;;;;;;;;;2.70;99.90;;;;;;4971702;28;19929;-75
2022/12/15 12:43:01;;;;;;;;;;;2.80;99.90;;;;;;4960334;28;19922;-73
2022/12/15 12:45:29;;;;;;;;;;;2.90;99.90;;;;;;4965394;28;19927;-74
2022/12/15 12:47:56;;;;;;;;;;;3.00;99.90;;;;;;4971401;28;19937;-73
2022/12/15 12:50:26;;;;;;;;;;;3.10;99.90;;;;;;4971824;28;19926;-73
2022/12/15 12:52:56;;;;;;;;;;;3.10;99.90;;;;;;4965481;28;20011;-74
2022/12/15 12:55:24;;;;;;;;;;;3.00;99.90;;;;;;4955937;28;19936;-73
2022/12/15 12:57:50;;;;;;;;;;;2.90;99.90;;;;;;4959544;28;20187;-74
2022/12/15 13:00:18;;;;;;;;;;;2.90;99.90;;;;;;4960670;28;20472;-74
2022/12/15 13:02:47;;;;;;;;;;;2.80;99.90;;;;;;4958182;28;19958;-74
2022/12/15 13:05:22;;;;;;;;;;;2.80;99.90;;;;;;4958586;28;19932;-74
2022/12/15 13:08:07;;;;;;;;;;;2.70;99.90;;;;;;4955346;28;19926;-73
2022/12/15 13:10:37;;;;;;;;;;;2.60;99.90;;;;;;4958477;28;19923;-74
2022/12/15 13:13:15;;;;;;;;;;;2.50;99.90;;;;;;4958572;28;19922;-74
2022/12/15 13:15:47;;;;;;;;;;;2.40;99.90;;;;;;4959623;28;19968;-74
2022/12/15 13:18:17;;;;;;;;;;;2.30;99.90;;;;;;4961231;28;19930;-74
2022/12/15 13:20:47;;;;;;;;;;;2.20;99.90;;;;;;4961386;28;19938;-73
2022/12/15 13:23:18;;;;;;;;;;;2.10;99.90;;;;;;4961978;28;19922;-75
2022/12/15 13:26:04;;;;;;;;;;;2.00;99.90;;;;;;4963419;28;19932;-74
2022/12/15 13:28:39;;;;;;;;;;;2.00;99.90;;;;;;4953597;28;20409;-73
2022/12/15 13:31:20;;;;;;;;;;;1.90;99.90;;;;;;4957376;28;19930;-74
2022/12/15 13:33:51;;;;;;;;;;;1.90;99.90;;;;;;4963645;28;19922;-74
2022/12/15 13:36:35;;;;;;;;;;;1.90;99.90;;;;;;4964415;28;20109;-74
2022/12/15 13:39:21;;;;;;;;;;;2.00;99.90;;;;;;4950983;28;19922;-73
2022/12/15 13:41:56;;;;;;;;;;;2.10;99.90;;;;;;4951848;28;19922;-75
2022/12/15 13:44:34;;;;;;;;;;;2.20;99.90;;;;;;4966185;28;19922;-73
2022/12/15 13:47:11;;;;;;;;;;;2.20;99.90;;;;;;4965408;28;20337;-75
2022/12/15 13:49:42;;;;;;;;;;;2.30;99.90;;;;;;4947421;28;19923;-74
2022/12/15 13:52:13;;;;;;;;;;;2.40;99.90;;;;;;4971624;28;20566;-74
2022/12/15 13:54:40;;;;;;;;;;;2.40;99.90;;;;;;4956876;28;19926;-74
2022/12/15 13:57:09;;;;;;;;;;;2.50;99.90;;;;;;4974337;28;20338;-74
2022/12/15 13:59:43;;;;;;;;;;;2.40;99.90;;;;;;4959735;28;20196;-73
2022/12/15 14:02:28;;;;;;;;;;;2.40;99.90;;;;;;4973057;28;19965;-75
2022/12/15 14:05:17;;;;;;;;;;;2.40;99.90;;;;;;4969270;28;19922;-75
2022/12/15 14:07:55;;;;;;;;;;;2.40;99.90;;;;;;4943415;28;20019;-73
2022/12/15 14:10:40;;;;;;;;;;;2.40;99.90;;;;;;4953009;28;19937;-73
2022/12/15 14:13:26;;;;;;;;;;;2.30;99.90;;;;;;4951421;28;19958;-74
2022/12/15 14:15:54;;;;;;;;;;;2.30;99.90;;;;;;4979362;28;19946;-75
2022/12/15 14:18:22;;;;;;;;;;;2.20;99.90;;;;;;4974283;28;20342;-75
2022/12/15 14:20:47;;;;;;;;;;;2.10;99.90;;;;;;4941517;29;20406;-74
2022/12/15 14:23:27;;;;;;;;;;;2.00;99.90;;;;;;4967951;28;19926;-75
2022/12/15 14:26:04;;;;;;;;;;;2.00;99.90;;;;;;4972737;28;19945;-75
2022/12/15 14:28:31;;;;;;;;;;;1.90;99.90;;;;;;4957849;28;19977;-75
2022/12/15 14:30:58;;;;;;;;;;;1.90;99.90;;;;;;4943831;28;19923;-74
2022/12/15 14:33:24;;;;;;;;;;;1.90;99.90;;;;;;4950133;28;20438;-74
2022/12/15 14:35:52;;;;;;;;;;;1.90;99.90;;;;;;4955400;28;19929;-75
2022/12/15 14:38:20;;;;;;;;;;;1.90;99.90;;;;;;4966823;28;20361;-74
2022/12/15 14:40:47;;;;;;;;;;;1.90;99.90;;;;;;4989151;28;20608;-75
2022/12/15 14:43:22;;;;;;;;;;;1.90;99.90;;;;;;4938586;28;19933;-75
2022/12/15 14:45:52;;;;;;;;;;;1.90;99.90;;;;;;4957841;28;19999;-75
2022/12/15 14:48:27;;;;;;;;;;;1.80;99.90;;;;;;4942945;28;19923;-75
2022/12/15 14:50:52;;;;;;;;;;;1.80;99.90;;;;;;4934800;29;19922;-74
2022/12/15 14:53:29;;;;;;;;;;;1.80;99.90;;;;;;4953954;28;19922;-75
2022/12/15 14:55:55;;;;;;;;;;;1.80;99.90;;;;;;4965483;28;19926;-74
2022/12/15 14:58:24;;;;;;;;;;;1.70;99.90;;;;;;4962143;28;20286;-74
2022/12/15 15:00:51;;;;;;;;;;;1.70;99.90;;;;;;4963558;28;19933;-74
2022/12/15 15:03:17;;;;;;;;;;;1.70;99.90;;;;;;4963599;28;19938;-75
2022/12/15 15:05:50;;;;;;;;;;;1.70;99.90;;;;;;4958605;28;19930;-76
2022/12/15 15:08:27;;;;;;;;;;;1.80;99.90;;;;;;4963834;28;19926;-75
2022/12/15 15:11:16;;;;;;;;;;;1.80;99.90;;;;;;4944098;28;20009;-75
2022/12/15 15:13:42;;;;;;;;;;;1.80;99.90;;;;;;4940976;28;19933;-75
2022/12/15 15:16:14;;;;;;;;;;;1.80;99.90;;;;;;4957867;28;19927;-74
2022/12/15 15:18:41;;;;;;;;;;;1.80;99.90;;;;;;4937278;28;19933;-75
2022/12/15 15:21:23;;;;;;;;;;;1.70;99.90;;;;;;4963511;28;19944;-75
2022/12/15 15:23:59;;;;;;;;;;;1.60;99.90;;;;;;4957748;28;19923;-74
2022/12/15 15:26:25;;;;;;;;;;;1.60;99.90;;;;;;4957603;28;19974;-75
2022/12/15 15:28:50;;;;;;;;;;;1.50;99.90;;;;;;4943024;28;19969;-75
2022/12/15 15:31:27;;;;;;;;;;;1.40;99.90;;;;;;4946712;28;19926;-74
2022/12/15 15:33:57;;;;;;;;;;;1.30;99.90;;;;;;4953928;28;20043;-74
2022/12/15 15:36:31;;;;;;;;;;;1.20;99.90;;;;;;4970651;28;20013;-75
2022/12/15 15:38:57;;;;;;;;;;;1.10;99.90;;;;;;4953831;28;19926;-74
2022/12/15 15:41:31;;;;;;;;;;;1.00;99.90;;;;;;4970851;28;19957;-74
2022/12/15 15:43:58;;;;;;;;;;;1.00;99.90;;;;;;4955868;28;20485;-74
2022/12/15 15:46:24;;;;;;;;;;;1.00;99.90;;;;;;4954062;28;19923;-74
2022/12/15 15:49:09;;;;;;;;;;;0.90;99.90;;;;;;4934292;28;19923;-74
2022/12/15 15:51:35;;;;;;;;;;;0.80;99.90;;;;;;4943166;28;19934;-74
2022/12/15 15:54:07;;;;;;;;;;;0.80;99.90;;;;;;4955540;28;19965;-74
2022/12/15 15:56:33;;;;;;;;;;;0.70;99.90;;;;;;4963824;28;20013;-74
2022/12/15 15:59:01;;;;;;;;;;;0.60;99.90;;;;;;4951715;28;19927;-74
2022/12/15 16:01:36;;;;;;;;;;;0.60;99.90;;;;;;4957963;28;20442;-73
2022/12/15 16:04:01;;;;;;;;;;;0.50;99.90;;;;;;4928578;28;19926;-74
2022/12/15 16:06:27;;;;;;;;;;;0.40;99.90;;;;;;4961289;28;20013;-73
2022/12/15 16:08:53;;;;;;;;;;;0.40;99.90;;;;;;4938906;28;19973;-74
2022/12/15 16:11:24;;;;;;;;;;;0.30;99.90;;;;;;4941557;28;19922;-73
2022/12/15 16:13:50;;;;;;;;;;;0.20;99.90;;;;;;4964635;28;19929;-74
2022/12/15 16:16:20;;;;;;;;;;;0.10;99.90;;;;;;4941040;28;20306;-73
2022/12/15 16:18:46;;;;;;;;;;;0.10;99.90;;;;;;4941212;28;19992;-74
2022/12/15 16:21:18;;;;;;;;;;;0.00;99.90;;;;;;4955085;28;20013;-73
2022/12/15 16:24:00;;;;;;;;;;;0.00;99.90;;;;;;4956851;28;19922;-74
2022/12/15 16:26:27;;;;;;;;;;;-0.10;99.90;;;;;;4956219;28;19922;-74
2022/12/15 16:28:53;;;;;;;;;;;-0.10;99.90;;;;;;4953046;28;19926;-73
2022/12/15 16:31:29;;;;;;;;;;;-0.10;99.90;;;;;;4943052;28;19929;-73
2022/12/15 16:33:54;;;;;;;;;;;-0.10;99.90;;;;;;4948357;28;19997;-74
2022/12/15 16:36:20;;;;;;;;;;;-0.20;99.90;;;;;;4942990;28;19926;-73
2022/12/15 16:38:49;;;;;;;;;;;-0.20;99.90;;;;;;4961611;28;20462;-73
2022/12/15 16:41:16;;;;;;;;;;;-0.20;99.90;;;;;;4948796;29;20041;-74
2022/12/15 16:43:43;;;;;;;;;;;-0.20;99.90;;;;;;4953207;28;20400;-73
2022/12/15 16:46:12;;;;;;;;;;;-0.20;99.90;;;;;;4941998;28;20033;-74
2022/12/15 16:48:38;;;;;;;;;;;-0.10;99.90;;;;;;4951918;28;20528;-74
2022/12/15 16:51:05;;;;;;;;;;;-0.10;99.90;;;;;;4936827;28;19934;-73
2022/12/15 16:53:32;;;;;;;;;;;-0.10;99.90;;;;;;4952915;28;20286;-73
2022/12/15 16:55:58;;;;;;;;;;;-0.10;99.90;;;;;;4944083;28;19933;-74
2022/12/15 16:58:25;;;;;;;;;;;-0.10;99.90;;;;;;4958719;28;19974;-73
2022/12/15 17:00:52;;;;;;;;;;;0.00;99.90;;;;;;4941278;28;19923;-73
2022/12/15 17:03:21;;;;;;;;;;;0.00;99.90;;;;;;4957460;28;20025;-73
2022/12/15 17:05:49;;;;;;;;;;;0.00;99.90;;;;;;4958554;28;19926;-71
2022/12/15 17:08:17;;;;;;;;;;;-0.10;99.90;;;;;;4966622;28;19923;-71